Time;durP1;ratioP1;P1;durP2;ratioP2;P2;SDS_P1;SDS_P2;PMS_P1;PMS_P2;Temp;Humidity;BMP_temperature;BMP_pressure;BME280_temperature;BME280_humidity;BME280_pressure;Samples;Min_cycle;Max_cycle;Signal;HPM_P1;HPM_P2
2023/09/28 00:02:04;0.00;0.00;0.62;0.00;0.00;0.62;8.17;6.00;;;26.20;38.40;;;;;;2268490;61;20363;-65
2023/09/28 00:04:49;0.00;0.00;0.62;0.00;0.00;0.62;6.13;5.13;;;26.20;38.50;;;;;;2268159;61;20373;-64
2023/09/28 00:07:35;0.00;0.00;0.62;0.00;0.00;0.62;7.63;5.73;;;26.10;38.50;;;;;;2268287;61;20389;-65
2023/09/28 00:10:20;0.00;0.00;0.62;0.00;0.00;0.62;6.00;5.33;;;26.10;38.50;;;;;;2268399;61;20394;-65
2023/09/28 00:13:04;0.00;0.00;0.62;0.00;0.00;0.62;7.17;6.47;;;26.10;38.60;;;;;;2268229;61;20406;-65
2023/09/28 00:15:48;0.00;0.00;0.62;0.00;0.00;0.62;7.00;4.93;;;26.00;38.60;;;;;;2268435;61;20363;-64
2023/09/28 00:18:33;0.00;0.00;0.62;0.00;0.00;0.62;5.20;4.70;;;26.00;38.70;;;;;;2267763;61;20394;-64
2023/09/28 00:21:18;0.00;0.00;0.62;0.00;0.00;0.62;6.70;5.43;;;26.00;38.70;;;;;;2267673;61;20428;-63
2023/09/28 00:24:05;0.00;0.00;0.62;0.00;0.00;0.62;7.13;5.80;;;26.00;38.80;;;;;;2268560;61;20359;-65
2023/09/28 00:26:51;0.00;0.00;0.62;0.00;0.00;0.62;5.97;5.37;;;26.00;38.90;;;;;;2268143;61;20371;-63
2023/09/28 00:29:37;0.00;0.00;0.62;0.00;0.00;0.62;5.80;5.20;;;26.00;39.60;;;;;;2267467;61;20390;-67
2023/09/28 00:32:22;0.00;0.00;0.62;0.00;0.00;0.62;5.80;5.20;;;26.00;38.90;;;;;;2267947;61;20367;-63
2023/09/28 00:35:07;0.00;0.00;0.62;0.00;0.00;0.62;6.80;5.77;;;26.00;38.90;;;;;;2268280;61;20408;-67
2023/09/28 00:37:52;0.00;0.00;0.62;0.00;0.00;0.62;5.43;4.93;;;26.00;38.90;;;;;;2268042;61;20383;-64
2023/09/28 00:40:41;0.00;0.00;0.62;0.00;0.00;0.62;6.47;5.77;;;26.10;39.00;;;;;;2267930;61;20807;-65
2023/09/28 00:43:28;0.00;0.00;0.62;0.00;0.00;0.62;7.80;5.00;;;26.10;38.90;;;;;;2268272;61;20363;-63
2023/09/28 00:46:16;0.00;0.00;0.62;0.00;0.00;0.62;5.50;5.00;;;26.10;38.80;;;;;;2267992;61;20366;-64
2023/09/28 00:49:05;0.00;0.00;0.62;0.00;0.00;0.62;6.00;5.40;;;26.20;38.80;;;;;;2267527;61;20508;-64
2023/09/28 00:51:51;0.00;0.00;0.62;0.00;0.00;0.62;5.93;4.13;;;26.20;38.60;;;;;;2265004;61;20475;-64
2023/09/28 00:54:38;0.00;0.00;0.62;0.00;0.00;0.62;5.87;5.27;;;26.20;38.50;;;;;;2270727;60;20377;-64
2023/09/28 00:57:24;0.00;0.00;0.62;0.00;0.00;0.62;5.40;4.90;;;26.20;38.40;;;;;;2276378;60;20808;-64
2023/09/28 01:00:29;0.00;0.00;0.62;0.00;0.00;0.62;5.63;5.10;;;26.30;38.40;;;;;;2276396;60;20418;-65
2023/09/28 01:03:16;0.00;0.00;0.62;0.00;0.00;0.62;5.80;5.20;;;26.30;38.30;;;;;;2275953;60;20356;-65
2023/09/28 01:06:05;0.00;0.00;0.62;0.00;0.00;0.62;6.90;4.50;;;26.30;38.20;;;;;;2275922;60;20357;-64
2023/09/28 01:08:50;0.00;0.00;0.62;0.00;0.00;0.62;5.97;5.00;;;26.30;38.20;;;;;;2276197;60;20886;-65
2023/09/28 01:11:35;0.00;0.00;0.62;0.00;0.00;0.62;6.03;5.37;;;26.30;38.10;;;;;;2276452;60;20427;-65
2023/09/28 01:14:22;0.00;0.00;0.62;0.00;0.00;0.62;6.10;5.37;;;26.30;38.00;;;;;;2276566;60;20360;-63
2023/09/28 01:17:07;0.00;0.00;0.62;0.00;0.00;0.62;5.43;4.80;;;26.20;38.00;;;;;;2275975;60;20385;-64
2023/09/28 01:19:53;0.00;0.00;0.62;0.00;0.00;0.62;5.37;4.87;;;26.20;38.00;;;;;;2275639;60;20831;-64
2023/09/28 01:22:39;0.00;0.00;0.62;0.00;0.00;0.62;5.77;5.13;;;26.20;38.10;;;;;;2276367;60;20361;-66
2023/09/28 01:25:26;0.00;0.00;0.62;0.00;0.00;0.62;6.40;5.60;;;26.30;38.10;;;;;;2276514;60;20926;-65
2023/09/28 01:28:10;0.00;0.00;0.62;0.00;0.00;0.62;6.70;5.10;;;26.30;38.00;;;;;;2275525;60;20353;-65
2023/09/28 01:30:56;0.00;0.00;0.62;0.00;0.00;0.62;5.20;4.70;;;26.30;37.90;;;;;;2275985;60;20373;-64
2023/09/28 01:33:42;0.00;0.00;0.62;0.00;0.00;0.62;6.23;5.57;;;26.30;37.80;;;;;;2276120;60;20471;-64
2023/09/28 01:36:27;0.00;0.00;0.62;0.00;0.00;0.62;5.33;4.93;;;26.30;38.40;;;;;;2272517;60;20346;-65
2023/09/28 01:39:13;0.00;0.00;0.62;0.00;0.00;0.62;7.07;5.73;;;26.20;37.60;;;;;;2272428;60;20793;-64
2023/09/28 01:41:58;0.00;0.00;0.62;0.00;0.00;0.62;6.10;5.50;;;26.20;37.60;;;;;;2270799;60;20850;-65
2023/09/28 01:44:43;0.00;0.00;0.62;0.00;0.00;0.62;6.80;5.80;;;26.20;37.60;;;;;;2265240;61;20374;-64
2023/09/28 01:47:27;0.00;0.00;0.62;0.00;0.00;0.62;7.47;6.77;;;26.10;37.60;;;;;;2509645;45;20816;-64
2023/09/28 01:50:12;0.00;0.00;0.62;0.00;0.00;0.62;6.43;5.37;;;26.10;37.70;;;;;;2268242;61;20512;-65
2023/09/28 01:52:57;0.00;0.00;0.62;0.00;0.00;0.62;6.03;5.20;;;26.00;37.70;;;;;;2268391;61;20529;-68
2023/09/28 01:55:42;0.00;0.00;0.62;0.00;0.00;0.62;6.20;4.90;;;26.00;37.80;;;;;;2275218;60;20916;-64
2023/09/28 01:58:27;0.00;0.00;0.62;0.00;0.00;0.62;5.57;5.03;;;25.90;37.90;;;;;;2275926;60;20393;-62
2023/09/28 02:01:22;0.00;0.00;0.62;0.00;0.00;0.62;5.37;4.80;;;25.90;38.10;;;;;;2276515;60;20393;-64
2023/09/28 02:04:07;0.00;0.00;0.62;0.00;0.00;0.62;7.10;5.70;;;25.90;38.10;;;;;;2276526;60;20425;-64
2023/09/28 02:06:53;0.00;0.00;0.62;0.00;0.00;0.62;5.57;5.07;;;25.80;38.10;;;;;;2277039;60;20409;-65
2023/09/28 02:09:38;0.00;0.00;0.62;0.00;0.00;0.62;5.50;5.00;;;25.80;38.10;;;;;;2276608;60;20353;-65
2023/09/28 02:12:26;0.00;0.00;0.62;0.00;0.00;0.62;5.20;4.70;;;25.80;38.20;;;;;;2276861;60;20394;-64
2023/09/28 02:15:14;0.00;0.00;0.62;0.00;0.00;0.62;6.20;5.60;;;25.80;38.20;;;;;;2277090;60;20393;-65
2023/09/28 02:17:59;0.00;0.00;0.62;0.00;0.00;0.62;6.00;5.43;;;25.80;38.30;;;;;;2276746;60;20950;-63
2023/09/28 02:20:44;0.00;0.00;0.62;0.00;0.00;0.62;6.70;5.50;;;25.80;38.30;;;;;;2276643;60;20507;-65
2023/09/28 02:23:29;0.00;0.00;0.62;0.00;0.00;0.62;5.70;5.10;;;25.80;38.40;;;;;;2276908;60;20785;-64
2023/09/28 02:26:14;0.00;0.00;0.62;0.00;0.00;0.62;5.50;4.90;;;25.80;38.40;;;;;;2276738;60;20361;-64
2023/09/28 02:28:59;0.00;0.00;0.62;0.00;0.00;0.62;5.20;4.70;;;25.80;38.30;;;;;;2276569;60;20353;-64
2023/09/28 02:31:44;0.00;0.00;0.62;0.00;0.00;0.62;5.23;4.73;;;25.80;38.20;;;;;;2276914;60;20416;-64
2023/09/28 02:34:32;0.00;0.00;0.62;0.00;0.00;0.62;5.80;5.30;;;25.80;38.20;;;;;;2276390;60;20757;-64
2023/09/28 02:37:17;0.00;0.00;0.62;0.00;0.00;0.62;5.10;4.60;;;25.80;38.20;;;;;;2276762;60;20897;-64
2023/09/28 02:40:04;0.00;0.00;0.62;0.00;0.00;0.62;5.83;5.33;;;25.80;38.20;;;;;;2274682;60;20691;-64
2023/09/28 02:42:49;0.00;0.00;0.62;0.00;0.00;0.62;6.33;4.57;;;25.90;38.30;;;;;;2272253;60;20366;-64
2023/09/28 02:45:35;0.00;0.00;0.62;0.00;0.00;0.62;5.23;4.70;;;25.90;38.10;;;;;;2269636;61;20358;-63
2023/09/28 02:48:20;0.00;0.00;0.62;0.00;0.00;0.62;5.00;4.50;;;25.90;38.00;;;;;;2272029;60;20423;-65
2023/09/28 02:51:10;0.00;0.00;0.62;0.00;0.00;0.62;6.20;5.60;;;25.80;37.80;;;;;;2272307;60;20390;-65
2023/09/28 02:53:55;0.00;0.00;0.62;0.00;0.00;0.62;4.80;4.30;;;25.80;37.90;;;;;;2272808;60;21005;-65
2023/09/28 02:56:40;0.00;0.00;0.62;0.00;0.00;0.62;7.60;4.93;;;25.80;37.90;;;;;;2552618;45;20386;-64
2023/09/28 02:59:26;0.00;0.00;0.62;0.00;0.00;0.62;6.57;5.63;;;25.80;38.00;;;;;;2265046;61;20441;-66
2023/09/28 03:02:13;0.00;0.00;0.62;0.00;0.00;0.62;7.10;6.40;;;25.70;38.00;;;;;;2268674;61;20363;-64
2023/09/28 03:04:58;0.00;0.00;0.62;0.00;0.00;0.62;5.77;5.27;;;25.70;38.10;;;;;;2268016;61;20372;-64
2023/09/28 03:07:43;0.00;0.00;0.62;0.00;0.00;0.62;6.60;5.07;;;25.60;38.20;;;;;;2268301;61;20364;-62
2023/09/28 03:10:28;0.00;0.00;0.62;0.00;0.00;0.62;5.60;5.00;;;25.60;38.20;;;;;;2267987;61;20383;-65
2023/09/28 03:13:13;0.00;0.00;0.62;0.00;0.00;0.62;6.70;6.00;;;25.50;38.30;;;;;;2268630;61;20822;-62
2023/09/28 03:15:59;0.00;0.00;0.62;0.00;0.00;0.62;6.33;5.70;;;25.50;38.40;;;;;;2268159;61;20818;-63
2023/09/28 03:18:46;0.00;0.00;0.62;0.00;0.00;0.62;6.00;5.43;;;25.40;39.10;;;;;;2268076;61;20541;-63
2023/09/28 03:21:30;0.00;0.00;0.62;0.00;0.00;0.62;5.77;5.23;;;25.40;38.60;;;;;;2268326;61;20390;-64
2023/09/28 03:24:15;0.00;0.00;0.62;0.00;0.00;0.62;6.50;5.90;;;25.40;38.60;;;;;;2268645;61;20417;-61
2023/09/28 03:26:59;0.00;0.00;0.62;0.00;0.00;0.62;6.60;5.27;;;25.30;38.70;;;;;;2268031;61;20363;-64
2023/09/28 03:29:44;0.00;0.00;0.62;0.00;0.00;0.62;5.60;5.10;;;25.30;38.80;;;;;;2267966;61;20399;-64
2023/09/28 03:32:29;0.00;0.00;0.62;0.00;0.00;0.62;5.50;5.00;;;25.20;38.80;;;;;;2268387;61;20500;-69
2023/09/28 03:35:17;0.00;0.00;0.62;0.00;0.00;0.62;5.67;5.17;;;25.20;39.00;;;;;;2268771;61;20398;-64
2023/09/28 03:38:02;0.00;0.00;0.62;0.00;0.00;0.62;5.90;5.30;;;25.20;39.10;;;;;;2268098;61;20391;-64
2023/09/28 03:40:47;0.00;0.00;0.62;0.00;0.00;0.62;8.27;6.30;;;25.20;39.10;;;;;;2268192;61;20972;-64
2023/09/28 03:43:31;0.00;0.00;0.62;0.00;0.00;0.62;6.20;5.60;;;25.20;39.20;;;;;;2268718;61;20437;-64
2023/09/28 03:46:21;0.00;0.00;0.62;0.00;0.00;0.62;5.67;5.10;;;25.10;39.20;;;;;;2268410;61;20425;-63
2023/09/28 03:49:08;0.00;0.00;0.62;0.00;0.00;0.62;6.07;5.47;;;25.10;39.20;;;;;;2267878;61;20358;-61
2023/09/28 03:51:54;0.00;0.00;0.62;0.00;0.00;0.62;5.30;4.80;;;25.10;39.30;;;;;;2268433;61;20413;-64
2023/09/28 03:54:39;0.00;0.00;0.62;0.00;0.00;0.62;6.30;5.50;;;25.10;39.30;;;;;;2270924;60;20381;-66
2023/09/28 03:57:23;0.00;0.00;0.62;0.00;0.00;0.62;5.50;5.00;;;25.10;39.30;;;;;;2276675;60;20754;-62
2023/09/28 04:00:12;0.00;0.00;0.62;0.00;0.00;0.62;6.37;5.63;;;25.10;39.30;;;;;;2276400;60;20412;-64
2023/09/28 04:02:57;0.00;0.00;0.62;0.00;0.00;0.62;5.90;5.23;;;25.10;39.30;;;;;;2275924;60;20419;-63
2023/09/28 04:05:42;0.00;0.00;0.62;0.00;0.00;0.62;6.20;4.87;;;25.10;39.30;;;;;;2276711;60;20382;-66
2023/09/28 04:08:28;0.00;0.00;0.62;0.00;0.00;0.62;9.60;7.07;;;25.20;39.40;;;;;;2276338;60;20365;-62
2023/09/28 04:11:13;0.00;0.00;0.62;0.00;0.00;0.62;6.40;5.80;;;25.10;39.30;;;;;;2276355;60;20401;-63
2023/09/28 04:14:01;0.00;0.00;0.62;0.00;0.00;0.62;6.67;6.07;;;25.10;39.30;;;;;;2276578;60;20399;-64
2023/09/28 04:16:46;0.00;0.00;0.62;0.00;0.00;0.62;7.20;6.50;;;25.10;39.40;;;;;;2276468;60;20352;-64
2023/09/28 04:19:31;0.00;0.00;0.62;0.00;0.00;0.62;6.50;5.93;;;25.00;39.50;;;;;;2276093;60;20400;-61
2023/09/28 04:22:16;0.00;0.00;0.62;0.00;0.00;0.62;6.07;5.57;;;25.00;39.60;;;;;;2276085;60;20392;-63
2023/09/28 04:25:03;0.00;0.00;0.62;0.00;0.00;0.62;6.07;5.47;;;25.00;39.80;;;;;;2276446;60;20361;-64
2023/09/28 04:27:49;0.00;0.00;0.62;0.00;0.00;0.62;5.90;5.30;;;25.00;39.90;;;;;;2276679;60;20751;-64
2023/09/28 04:30:34;0.00;0.00;0.62;0.00;0.00;0.62;6.70;6.00;;;24.90;39.80;;;;;;2276431;60;20866;-63
2023/09/28 04:33:19;0.00;0.00;0.62;0.00;0.00;0.62;6.23;5.63;;;24.90;39.80;;;;;;2276398;60;20471;-63
2023/09/28 04:36:04;0.00;0.00;0.62;0.00;0.00;0.62;9.07;5.67;;;24.90;39.80;;;;;;2276584;60;20446;-64
2023/09/28 04:38:49;0.00;0.00;0.62;0.00;0.00;0.62;6.60;6.00;;;24.90;39.80;;;;;;2276082;60;20908;-63
2023/09/28 04:41:35;0.00;0.00;0.62;0.00;0.00;0.62;6.97;6.33;;;24.80;39.90;;;;;;2276649;60;20397;-65
2023/09/28 04:44:20;0.00;0.00;0.62;0.00;0.00;0.62;8.77;6.30;;;24.80;40.00;;;;;;2276558;60;20365;-63
2023/09/28 04:47:05;0.00;0.00;0.62;0.00;0.00;0.62;6.57;5.97;;;24.70;40.00;;;;;;2276386;60;20411;-64
2023/09/28 04:49:49;0.00;0.00;0.62;0.00;0.00;0.62;7.00;6.40;;;24.70;40.10;;;;;;2276292;60;20901;-67
2023/09/28 04:52:33;0.00;0.00;0.62;0.00;0.00;0.62;7.57;6.87;;;24.70;40.20;;;;;;2276483;60;20365;-63
2023/09/28 04:55:18;0.00;0.00;0.62;0.00;0.00;0.62;5.53;4.90;;;24.70;40.20;;;;;;2273672;60;20782;-63
2023/09/28 04:58:04;0.00;0.00;0.62;0.00;0.00;0.62;6.70;6.10;;;24.60;40.30;;;;;;2272052;61;20418;-61
2023/09/28 05:00:49;0.00;0.00;0.62;0.00;0.00;0.62;6.60;6.00;;;24.60;40.40;;;;;;2271977;61;20967;-60
2023/09/28 05:03:33;0.00;0.00;0.62;0.00;0.00;0.62;6.67;6.07;;;24.60;40.40;;;;;;2272295;61;20898;-63
2023/09/28 05:06:18;0.00;0.00;0.62;0.00;0.00;0.62;6.70;6.10;;;24.60;40.40;;;;;;2272613;61;20898;-65
2023/09/28 05:09:03;0.00;0.00;0.62;0.00;0.00;0.62;7.70;6.70;;;24.60;40.50;;;;;;2271932;61;20362;-63
2023/09/28 05:11:48;0.00;0.00;0.62;0.00;0.00;0.62;7.13;5.93;;;24.60;40.60;;;;;;2272299;61;20474;-63
2023/09/28 05:14:35;0.00;0.00;0.62;0.00;0.00;0.62;6.57;5.97;;;24.50;40.40;;;;;;2273054;61;20484;-61
2023/09/28 05:17:20;0.00;0.00;0.62;0.00;0.00;0.62;8.20;7.13;;;24.60;40.60;;;;;;2272876;61;20366;-62
2023/09/28 05:20:06;0.00;0.00;0.62;0.00;0.00;0.62;6.43;5.80;;;24.50;40.50;;;;;;2272728;61;20377;-65
2023/09/28 05:22:50;0.00;0.00;0.62;0.00;0.00;0.62;5.90;5.30;;;24.50;40.50;;;;;;2272968;61;20439;-63
2023/09/28 05:25:35;0.00;0.00;0.62;0.00;0.00;0.62;7.53;6.63;;;24.50;40.50;;;;;;2273028;61;20370;-61
2023/09/28 05:28:19;0.00;0.00;0.62;0.00;0.00;0.62;7.63;6.67;;;24.50;40.50;;;;;;2272745;61;20416;-64
2023/09/28 05:31:06;0.00;0.00;0.62;0.00;0.00;0.62;8.50;6.20;;;24.50;40.60;;;;;;2272802;61;20382;-64
2023/09/28 05:33:50;0.00;0.00;0.62;0.00;0.00;0.62;7.47;6.17;;;24.50;40.60;;;;;;2273061;61;20906;-65
2023/09/28 05:36:35;0.00;0.00;0.62;0.00;0.00;0.62;11.77;6.27;;;24.50;40.60;;;;;;2273044;61;20366;-63
2023/09/28 05:39:21;0.00;0.00;0.62;0.00;0.00;0.62;8.80;6.20;;;24.50;40.60;;;;;;2272299;61;20475;-62
2023/09/28 05:42:07;0.00;0.00;0.62;0.00;0.00;0.62;7.57;6.80;;;24.50;40.60;;;;;;2273159;61;20859;-62
2023/09/28 05:44:52;0.00;0.00;0.62;0.00;0.00;0.62;14.00;7.57;;;24.50;40.60;;;;;;2273226;61;20363;-65
2023/09/28 05:47:38;0.00;0.00;0.62;0.00;0.00;0.62;11.77;7.80;;;24.40;40.60;;;;;;2272906;61;20366;-64
2023/09/28 05:50:22;0.00;0.00;0.62;0.00;0.00;0.62;9.63;7.27;;;24.40;40.60;;;;;;2271845;61;20504;-64
2023/09/28 05:53:07;0.00;0.00;0.62;0.00;0.00;0.62;11.70;7.90;;;24.40;41.30;;;;;;2275295;61;20430;-69
2023/09/28 05:55:51;0.00;0.00;0.62;0.00;0.00;0.62;8.80;7.80;;;24.40;40.70;;;;;;2278987;60;20381;-65
2023/09/28 05:58:36;0.00;0.00;0.62;0.00;0.00;0.62;9.10;7.47;;;24.40;40.70;;;;;;2279140;60;20481;-66
2023/09/28 06:01:23;0.00;0.00;0.62;0.00;0.00;0.62;8.53;6.50;;;24.40;40.70;;;;;;2279327;60;20401;-65
2023/09/28 06:04:11;0.00;0.00;0.62;0.00;0.00;0.62;10.23;6.90;;;24.40;40.80;;;;;;2279138;60;20369;-65
2023/09/28 06:06:56;0.00;0.00;0.62;0.00;0.00;0.62;8.00;6.03;;;24.40;40.80;;;;;;2279011;60;20901;-64
2023/09/28 06:09:41;0.00;0.00;0.62;0.00;0.00;0.62;9.27;6.53;;;24.50;40.80;;;;;;2279036;60;20361;-66
2023/09/28 06:12:26;0.00;0.00;0.62;0.00;0.00;0.62;10.20;6.70;;;24.50;40.80;;;;;;2279560;60;20442;-70
2023/09/28 06:15:11;0.00;0.00;0.62;0.00;0.00;0.62;9.13;6.40;;;24.50;40.80;;;;;;2279453;60;20358;-63
2023/09/28 06:17:56;0.00;0.00;0.62;0.00;0.00;0.62;7.53;6.10;;;24.50;40.70;;;;;;2278645;60;20459;-70
2023/09/28 06:20:42;0.00;0.00;0.62;0.00;0.00;0.62;6.67;5.97;;;24.60;40.70;;;;;;2279614;60;20381;-67
2023/09/28 06:23:27;0.00;0.00;0.62;0.00;0.00;0.62;7.30;6.13;;;24.60;40.70;;;;;;2278441;60;20372;-64
2023/09/28 06:26:12;0.00;0.00;0.62;0.00;0.00;0.62;7.20;4.97;;;24.60;40.70;;;;;;2279565;60;20376;-64
2023/09/28 06:28:56;0.00;0.00;0.62;0.00;0.00;0.62;8.80;5.50;;;24.60;40.70;;;;;;2279394;60;20358;-64
2023/09/28 06:31:41;0.00;0.00;0.62;0.00;0.00;0.62;8.17;5.70;;;24.70;40.70;;;;;;2279291;60;20381;-68
2023/09/28 06:34:26;0.00;0.00;0.62;0.00;0.00;0.62;10.07;6.00;;;24.70;40.70;;;;;;2278940;60;20364;-64
2023/09/28 06:37:12;0.00;0.00;0.62;0.00;0.00;0.62;9.13;6.23;;;24.70;40.50;;;;;;2279502;60;20384;-64
2023/09/28 06:39:56;0.00;0.00;0.62;0.00;0.00;0.62;6.30;5.70;;;24.80;40.60;;;;;;2279027;60;20932;-70
2023/09/28 06:42:41;0.00;0.00;0.62;0.00;0.00;0.62;7.10;6.40;;;24.80;40.40;;;;;;2278871;60;20399;-65
2023/09/28 06:45:26;0.00;0.00;0.62;0.00;0.00;0.62;7.80;6.27;;;24.80;40.40;;;;;;2279236;60;20439;-65
2023/09/28 06:48:10;0.00;0.00;0.62;0.00;0.00;0.62;6.23;4.90;;;24.80;40.00;;;;;;2278353;60;21106;-65
2023/09/28 06:50:59;0.00;0.00;0.62;0.00;0.00;0.62;6.20;5.57;;;24.80;39.80;;;;;;2279269;60;20399;-64
2023/09/28 06:53:46;0.00;0.00;0.62;0.00;0.00;0.62;6.33;5.33;;;24.80;39.70;;;;;;2279441;60;20373;-64
2023/09/28 06:56:30;0.00;0.00;0.62;0.00;0.00;0.62;6.37;4.70;;;24.80;39.70;;;;;;2509640;53;20367;-64
2023/09/28 06:59:15;0.00;0.00;0.62;0.00;0.00;0.62;6.10;3.97;;;24.80;39.70;;;;;;2270608;61;20448;-64
2023/09/28 07:02:00;0.00;0.00;0.62;0.00;0.00;0.62;7.03;4.27;;;24.80;39.70;;;;;;2271124;61;20933;-64
2023/09/28 07:04:44;0.00;0.00;0.62;0.00;0.00;0.62;4.60;4.20;;;24.80;39.70;;;;;;2271070;61;20386;-64
2023/09/28 07:07:30;0.00;0.00;0.62;0.00;0.00;0.62;5.70;3.70;;;24.80;39.70;;;;;;2270995;61;20363;-64
2023/09/28 07:10:17;0.00;0.00;0.62;0.00;0.00;0.62;6.50;4.00;;;24.70;39.60;;;;;;2271088;61;20466;-67
2023/09/28 07:13:05;0.00;0.00;0.62;0.00;0.00;0.62;6.13;3.60;;;24.70;39.50;;;;;;2271059;61;20367;-65
2023/09/28 07:15:49;0.00;0.00;0.62;0.00;0.00;0.62;4.80;4.33;;;24.70;39.50;;;;;;2271114;61;20367;-65
2023/09/28 07:18:35;0.00;0.00;0.62;0.00;0.00;0.62;4.63;3.70;;;24.70;39.50;;;;;;2270805;61;20434;-66
2023/09/28 07:21:20;0.00;0.00;0.62;0.00;0.00;0.62;4.60;3.90;;;24.70;39.50;;;;;;2271365;61;20383;-64
2023/09/28 07:24:06;0.00;0.00;0.62;0.00;0.00;0.62;4.30;3.83;;;24.70;39.60;;;;;;2270337;61;20394;-65
2023/09/28 07:26:52;0.00;0.00;0.62;0.00;0.00;0.62;4.43;3.70;;;24.70;39.60;;;;;;2271237;61;20364;-65
2023/09/28 07:29:36;0.00;0.00;0.62;0.00;0.00;0.62;3.50;3.20;;;24.70;39.60;;;;;;2270693;61;20421;-65
2023/09/28 07:32:21;0.00;0.00;0.62;0.00;0.00;0.62;5.93;4.30;;;24.70;39.60;;;;;;2271153;61;20956;-65
2023/09/28 07:35:09;0.00;0.00;0.62;0.00;0.00;0.62;4.00;3.60;;;24.70;39.60;;;;;;2271746;60;20366;-64
2023/09/28 07:37:54;0.00;0.00;0.62;0.00;0.00;0.62;6.87;4.50;;;24.70;39.60;;;;;;2274678;61;20427;-63
2023/09/28 07:40:38;0.00;0.00;0.62;0.00;0.00;0.62;3.77;3.37;;;24.70;39.60;;;;;;2275144;61;20428;-65
2023/09/28 07:43:24;0.00;0.00;0.62;0.00;0.00;0.62;4.90;4.07;;;24.70;39.60;;;;;;2275393;61;20523;-65
2023/09/28 07:46:09;0.00;0.00;0.62;0.00;0.00;0.62;6.17;4.50;;;24.70;39.60;;;;;;2274630;61;20362;-70
2023/09/28 07:48:56;0.00;0.00;0.62;0.00;0.00;0.62;6.53;4.13;;;24.70;39.60;;;;;;2275241;61;20450;-64
2023/09/28 07:51:41;0.00;0.00;0.62;0.00;0.00;0.62;4.00;3.43;;;24.70;39.60;;;;;;2274928;61;20377;-65
2023/09/28 07:54:25;0.00;0.00;0.62;0.00;0.00;0.62;6.30;4.70;;;24.70;39.60;;;;;;2276110;60;20369;-65
2023/09/28 07:57:10;0.00;0.00;0.62;0.00;0.00;0.62;7.73;4.60;;;24.80;39.70;;;;;;2279383;60;20362;-65
2023/09/28 07:59:56;0.00;0.00;0.62;0.00;0.00;0.62;4.80;3.87;;;24.80;39.90;;;;;;2278848;60;20899;-66
2023/09/28 08:02:42;0.00;0.00;0.62;0.00;0.00;0.62;3.93;3.50;;;24.80;40.00;;;;;;2279418;60;20806;-65
2023/09/28 08:05:27;0.00;0.00;0.62;0.00;0.00;0.62;5.40;4.10;;;24.90;40.20;;;;;;2279347;60;20395;-66
2023/09/28 08:08:12;0.00;0.00;0.62;0.00;0.00;0.62;4.17;3.40;;;24.90;40.30;;;;;;2279149;60;20384;-68
2023/09/28 08:10:56;0.00;0.00;0.62;0.00;0.00;0.62;5.17;4.20;;;24.90;41.00;;;;;;2279151;60;20408;-65
2023/09/28 08:13:41;0.00;0.00;0.62;0.00;0.00;0.62;5.00;4.43;;;24.90;40.40;;;;;;2279001;60;20416;-66
2023/09/28 08:16:29;0.00;0.00;0.62;0.00;0.00;0.62;6.10;3.90;;;25.00;40.40;;;;;;2278598;60;20370;-66
2023/09/28 08:19:13;0.00;0.00;0.62;0.00;0.00;0.62;7.27;3.87;;;25.00;40.40;;;;;;2278652;60;20381;-65
2023/09/28 08:21:58;0.00;0.00;0.62;0.00;0.00;0.62;4.77;3.67;;;25.00;40.40;;;;;;2279146;60;20361;-64
2023/09/28 08:24:43;0.00;0.00;0.62;0.00;0.00;0.62;4.03;3.63;;;25.10;40.50;;;;;;2278751;60;20354;-65
2023/09/28 08:27:29;0.00;0.00;0.62;0.00;0.00;0.62;4.63;3.30;;;25.10;40.40;;;;;;2279458;60;20398;-66
2023/09/28 08:30:15;0.00;0.00;0.62;0.00;0.00;0.62;6.00;4.03;;;25.10;40.40;;;;;;2278651;60;20774;-68
2023/09/28 08:33:01;0.00;0.00;0.62;0.00;0.00;0.62;3.90;3.50;;;25.20;40.40;;;;;;2279287;60;20357;-65
2023/09/28 08:35:47;0.00;0.00;0.62;0.00;0.00;0.62;4.27;3.80;;;25.20;40.40;;;;;;2279031;60;20369;-65
2023/09/28 08:38:32;0.00;0.00;0.62;0.00;0.00;0.62;5.83;4.20;;;25.30;40.40;;;;;;2278794;60;20477;-66
2023/09/28 08:41:25;0.00;0.00;0.62;0.00;0.00;0.62;4.03;3.63;;;25.30;40.30;;;;;;2279070;60;20403;-64
2023/09/28 08:44:10;0.00;0.00;0.62;0.00;0.00;0.62;4.90;4.10;;;25.30;40.20;;;;;;2278103;60;20451;-65
2023/09/28 08:46:58;0.00;0.00;0.62;0.00;0.00;0.62;5.13;3.83;;;25.40;40.30;;;;;;2278420;60;20393;-64
2023/09/28 08:49:47;0.00;0.00;0.62;0.00;0.00;0.62;5.40;4.40;;;25.40;40.20;;;;;;2277946;60;20901;-65
2023/09/28 08:52:35;0.00;0.00;0.62;0.00;0.00;0.62;4.80;3.73;;;25.40;40.20;;;;;;2278647;60;20876;-64
2023/09/28 08:55:21;0.00;0.00;0.62;0.00;0.00;0.62;6.57;4.07;;;25.50;40.20;;;;;;2276286;60;20410;-65
2023/09/28 08:58:08;0.00;0.00;0.62;0.00;0.00;0.62;5.33;4.10;;;25.50;40.20;;;;;;2274039;61;20378;-66
2023/09/28 09:00:53;0.00;0.00;0.62;0.00;0.00;0.62;4.40;4.00;;;25.50;40.20;;;;;;2274523;61;20439;-64
2023/09/28 09:03:40;0.00;0.00;0.62;0.00;0.00;0.62;4.40;3.80;;;25.60;40.30;;;;;;2274801;61;20358;-65
2023/09/28 09:06:28;0.00;0.00;0.62;0.00;0.00;0.62;5.20;4.17;;;25.60;40.30;;;;;;2274139;61;20949;-65
2023/09/28 09:09:16;0.00;0.00;0.62;0.00;0.00;0.62;7.20;4.20;;;25.70;40.40;;;;;;2273866;61;20755;-67
2023/09/28 09:12:07;0.00;0.00;0.62;0.00;0.00;0.62;4.40;4.00;;;25.70;40.30;;;;;;2274496;60;20447;-67
2023/09/28 09:14:52;0.00;0.00;0.62;0.00;0.00;0.62;4.30;3.80;;;25.70;40.40;;;;;;2273876;60;20390;-64
2023/09/28 09:17:37;0.00;0.00;0.62;0.00;0.00;0.62;5.80;4.53;;;25.80;40.40;;;;;;2273543;60;20392;-68
2023/09/28 09:20:23;0.00;0.00;0.62;0.00;0.00;0.62;4.97;4.47;;;25.80;40.40;;;;;;2273554;60;20380;-65
2023/09/28 09:23:14;0.00;0.00;0.62;0.00;0.00;0.62;5.40;4.63;;;25.80;40.40;;;;;;2273682;60;20365;-65
2023/09/28 09:25:58;0.00;0.00;0.62;0.00;0.00;0.62;5.80;3.60;;;25.80;40.40;;;;;;2273585;60;20378;-65
2023/09/28 09:28:46;0.00;0.00;0.62;0.00;0.00;0.62;4.53;4.10;;;25.90;40.50;;;;;;2273375;60;20366;-65
2023/09/28 09:31:30;0.00;0.00;0.62;0.00;0.00;0.62;4.33;3.80;;;25.90;40.50;;;;;;2274154;60;20397;-68
2023/09/28 09:34:17;0.00;0.00;0.62;0.00;0.00;0.62;5.70;4.00;;;26.00;40.60;;;;;;2273951;60;20366;-66
2023/09/28 09:37:02;0.00;0.00;0.62;0.00;0.00;0.62;4.57;3.80;;;26.00;40.50;;;;;;2273212;60;20388;-65
2023/09/28 09:39:49;0.00;0.00;0.62;0.00;0.00;0.62;5.20;4.10;;;26.00;40.50;;;;;;2273179;60;20397;-65
2023/09/28 09:42:33;0.00;0.00;0.62;0.00;0.00;0.62;4.67;3.87;;;26.10;40.50;;;;;;2273990;60;20392;-66
2023/09/28 09:45:19;0.00;0.00;0.62;0.00;0.00;0.62;5.33;4.27;;;26.10;40.40;;;;;;2274026;60;20666;-64
2023/09/28 09:48:09;0.00;0.00;0.62;0.00;0.00;0.62;6.90;4.30;;;26.10;40.40;;;;;;2272882;60;20377;-66
2023/09/28 09:50:55;0.00;0.00;0.62;0.00;0.00;0.62;4.63;3.43;;;26.20;40.50;;;;;;2273491;60;20469;-65
2023/09/28 09:53:42;0.00;0.00;0.62;0.00;0.00;0.62;6.43;4.40;;;26.20;40.30;;;;;;2273787;60;20385;-65
2023/09/28 09:56:29;0.00;0.00;0.62;0.00;0.00;0.62;5.40;4.13;;;26.20;40.30;;;;;;2705031;45;20362;-65
2023/09/28 09:59:16;0.00;0.00;0.62;0.00;0.00;0.62;4.80;3.80;;;26.30;40.40;;;;;;2273447;60;20421;-66
2023/09/28 10:02:03;0.00;0.00;0.62;0.00;0.00;0.62;4.90;4.40;;;26.30;40.30;;;;;;2274184;61;20394;-66
2023/09/28 10:04:48;0.00;0.00;0.62;0.00;0.00;0.62;5.23;3.93;;;26.30;40.30;;;;;;2274292;61;20785;-65
2023/09/28 10:07:37;0.00;0.00;0.62;0.00;0.00;0.62;5.33;4.00;;;26.30;40.20;;;;;;2274502;61;20358;-65
2023/09/28 10:10:23;0.00;0.00;0.62;0.00;0.00;0.62;5.43;4.20;;;26.40;40.20;;;;;;2274142;61;20427;-65
2023/09/28 10:13:10;0.00;0.00;0.62;0.00;0.00;0.62;6.17;4.47;;;26.40;40.10;;;;;;2274109;61;20390;-68
2023/09/28 10:15:55;0.00;0.00;0.62;0.00;0.00;0.62;6.00;4.03;;;26.50;40.10;;;;;;2274242;61;20366;-70
2023/09/28 10:18:46;0.00;0.00;0.62;0.00;0.00;0.62;4.20;3.80;;;26.50;40.00;;;;;;2273805;61;20420;-66
2023/09/28 10:21:35;0.00;0.00;0.62;0.00;0.00;0.62;8.57;4.77;;;26.50;40.00;;;;;;2274146;61;20378;-64
2023/09/28 10:24:30;0.00;0.00;0.62;0.00;0.00;0.62;8.30;4.40;;;26.60;40.10;;;;;;2274285;61;20396;-65
2023/09/28 10:27:15;0.00;0.00;0.62;0.00;0.00;0.62;4.37;3.33;;;26.60;40.10;;;;;;2274355;61;20683;-66
2023/09/28 10:30:20;0.00;0.00;0.62;0.00;0.00;0.62;5.20;4.57;;;26.60;40.00;;;;;;2274218;61;20374;-65
2023/09/28 10:33:12;0.00;0.00;0.62;0.00;0.00;0.62;4.17;3.50;;;26.70;40.00;;;;;;2274740;61;20671;-65
2023/09/28 10:36:12;0.00;0.00;0.62;0.00;0.00;0.62;6.73;4.20;;;26.70;40.00;;;;;;2274640;61;20420;-65
2023/09/28 10:39:14;0.00;0.00;0.62;0.00;0.00;0.62;4.40;3.80;;;26.80;39.90;;;;;;2274336;61;20382;-64
2023/09/28 10:42:10;0.00;0.00;0.62;0.00;0.00;0.62;6.77;4.07;;;26.80;39.90;;;;;;2274265;61;20434;-64
2023/09/28 10:44:56;0.00;0.00;0.62;0.00;0.00;0.62;5.23;3.70;;;26.80;39.70;;;;;;2274039;61;20370;-63
2023/09/28 10:47:42;0.00;0.00;0.62;0.00;0.00;0.62;3.97;3.57;;;26.80;39.70;;;;;;2274344;61;20366;-64
2023/09/28 10:50:27;0.00;0.00;0.62;0.00;0.00;0.62;5.83;3.90;;;26.90;39.60;;;;;;2274414;61;20466;-63
2023/09/28 10:53:12;0.00;0.00;0.62;0.00;0.00;0.62;4.00;3.57;;;26.90;39.50;;;;;;2274481;61;20369;-64
2023/09/28 10:55:58;0.00;0.00;0.62;0.00;0.00;0.62;4.83;3.43;;;26.90;39.30;;;;;;2276864;60;20426;-66